Terminal Aerodrome Forecast
Issued by NWS El Paso, TX

Home | Current Version | Previous Version | Text Only | Print | Product List | Glossary On
Versions: 1 2 3 4 5 6 7 8 9 10 11 12 13
710
FTUS44 KEPZ 171742 CCA
TAFELP
TAF COR
KELP 171742Z 1718/1818 24010KT P6SM SCT140 BKN250
     FM172000 25015G25KT P6SM SCT140 BKN250
     FM180800 28012KT P6SM SCT120 BKN250
     FM181200 33013KT P6SM FEW140 SCT250=

USA.gov is the U.S. government's official web portal to all federal, state and local government web resources and services.